sensor_id;sensor_type;location;lat;lon;timestamp;P1;durP1;ratioP1;P2;durP2;ratioP2
9809;SDS011;4944;52.514;13.192;2022-10-31T00:02:21;8.67;;;6.30;;
9809;SDS011;4944;52.514;13.192;2022-10-31T00:04:48;9.03;;;6.67;;
9809;SDS011;4944;52.514;13.192;2022-10-31T00:07:15;9.87;;;7.33;;
9809;SDS011;4944;52.514;13.192;2022-10-31T00:09:43;14.77;;;8.07;;
9809;SDS011;4944;52.514;13.192;2022-10-31T00:12:10;12.70;;;7.87;;
9809;SDS011;4944;52.514;13.192;2022-10-31T00:14:36;14.67;;;8.17;;
9809;SDS011;4944;52.514;13.192;2022-10-31T00:17:03;12.77;;;8.10;;
9809;SDS011;4944;52.514;13.192;2022-10-31T00:19:30;13.87;;;7.77;;
9809;SDS011;4944;52.514;13.192;2022-10-31T00:21:56;10.00;;;8.03;;
9809;SDS011;4944;52.514;13.192;2022-10-31T00:24:23;14.70;;;8.77;;
9809;SDS011;4944;52.514;13.192;2022-10-31T00:26:51;12.37;;;8.30;;
9809;SDS011;4944;52.514;13.192;2022-10-31T00:29:18;11.60;;;7.93;;
9809;SDS011;4944;52.514;13.192;2022-10-31T00:31:45;10.73;;;7.80;;
9809;SDS011;4944;52.514;13.192;2022-10-31T00:34:11;13.37;;;8.27;;
9809;SDS011;4944;52.514;13.192;2022-10-31T00:36:38;13.50;;;7.50;;
9809;SDS011;4944;52.514;13.192;2022-10-31T00:39:05;11.37;;;8.40;;
9809;SDS011;4944;52.514;13.192;2022-10-31T00:41:31;10.40;;;8.07;;
9809;SDS011;4944;52.514;13.192;2022-10-31T00:44:01;14.37;;;8.67;;
9809;SDS011;4944;52.514;13.192;2022-10-31T00:46:28;11.60;;;8.63;;
9809;SDS011;4944;52.514;13.192;2022-10-31T00:48:55;14.83;;;9.10;;
9809;SDS011;4944;52.514;13.192;2022-10-31T00:51:22;11.93;;;9.03;;
9809;SDS011;4944;52.514;13.192;2022-10-31T00:53:48;12.97;;;8.60;;
9809;SDS011;4944;52.514;13.192;2022-10-31T00:56:15;13.10;;;8.90;;
9809;SDS011;4944;52.514;13.192;2022-10-31T00:58:42;13.03;;;9.40;;
9809;SDS011;4944;52.514;13.192;2022-10-31T01:01:10;11.73;;;8.93;;
9809;SDS011;4944;52.514;13.192;2022-10-31T01:03:37;12.07;;;10.07;;
9809;SDS011;4944;52.514;13.192;2022-10-31T01:06:05;10.83;;;8.90;;
9809;SDS011;4944;52.514;13.192;2022-10-31T01:08:33;15.17;;;9.57;;
9809;SDS011;4944;52.514;13.192;2022-10-31T01:11:02;12.93;;;9.30;;
9809;SDS011;4944;52.514;13.192;2022-10-31T01:13:31;17.57;;;8.40;;
9809;SDS011;4944;52.514;13.192;2022-10-31T01:15:59;11.13;;;8.60;;
9809;SDS011;4944;52.514;13.192;2022-10-31T01:18:28;12.63;;;8.47;;
9809;SDS011;4944;52.514;13.192;2022-10-31T01:21:02;10.70;;;8.43;;
9809;SDS011;4944;52.514;13.192;2022-10-31T01:23:30;13.00;;;8.77;;
9809;SDS011;4944;52.514;13.192;2022-10-31T01:26:05;11.47;;;8.67;;
9809;SDS011;4944;52.514;13.192;2022-10-31T01:28:34;12.00;;;8.83;;
9809;SDS011;4944;52.514;13.192;2022-10-31T01:31:02;15.20;;;9.47;;
9809;SDS011;4944;52.514;13.192;2022-10-31T01:33:31;10.80;;;9.40;;
9809;SDS011;4944;52.514;13.192;2022-10-31T01:35:58;12.57;;;9.20;;
9809;SDS011;4944;52.514;13.192;2022-10-31T01:38:25;15.43;;;8.97;;
9809;SDS011;4944;52.514;13.192;2022-10-31T01:40:51;11.17;;;8.67;;
9809;SDS011;4944;52.514;13.192;2022-10-31T01:43:18;11.67;;;8.70;;
9809;SDS011;4944;52.514;13.192;2022-10-31T01:45:46;9.07;;;8.17;;
9809;SDS011;4944;52.514;13.192;2022-10-31T01:48:20;15.27;;;9.33;;
9809;SDS011;4944;52.514;13.192;2022-10-31T01:50:54;14.47;;;8.90;;
9809;SDS011;4944;52.514;13.192;2022-10-31T01:53:22;13.97;;;8.83;;
9809;SDS011;4944;52.514;13.192;2022-10-31T01:55:50;17.70;;;8.97;;
9809;SDS011;4944;52.514;13.192;2022-10-31T01:58:19;12.33;;;9.00;;
9809;SDS011;4944;52.514;13.192;2022-10-31T02:00:49;13.20;;;8.40;;
9809;SDS011;4944;52.514;13.192;2022-10-31T02:03:19;9.97;;;8.13;;
9809;SDS011;4944;52.514;13.192;2022-10-31T02:05:47;13.23;;;8.90;;
9809;SDS011;4944;52.514;13.192;2022-10-31T02:08:18;10.73;;;9.43;;
9809;SDS011;4944;52.514;13.192;2022-10-31T02:10:48;11.97;;;9.47;;
9809;SDS011;4944;52.514;13.192;2022-10-31T02:13:15;14.37;;;9.20;;
9809;SDS011;4944;52.514;13.192;2022-10-31T02:15:42;13.40;;;9.10;;
9809;SDS011;4944;52.514;13.192;2022-10-31T02:18:11;13.03;;;8.63;;
9809;SDS011;4944;52.514;13.192;2022-10-31T02:20:40;15.73;;;8.17;;
9809;SDS011;4944;52.514;13.192;2022-10-31T02:26:19;14.77;;;9.53;;
9809;SDS011;4944;52.514;13.192;2022-10-31T02:29:15;13.80;;;8.80;;
9809;SDS011;4944;52.514;13.192;2022-10-31T02:32:14;14.90;;;8.20;;
9809;SDS011;4944;52.514;13.192;2022-10-31T02:34:46;13.40;;;8.67;;
9809;SDS011;4944;52.514;13.192;2022-10-31T02:37:23;11.83;;;8.67;;
9809;SDS011;4944;52.514;13.192;2022-10-31T02:39:56;12.10;;;8.50;;
9809;SDS011;4944;52.514;13.192;2022-10-31T02:42:31;12.60;;;9.10;;
9809;SDS011;4944;52.514;13.192;2022-10-31T02:45:06;16.33;;;9.87;;
9809;SDS011;4944;52.514;13.192;2022-10-31T02:47:40;10.83;;;8.60;;
9809;SDS011;4944;52.514;13.192;2022-10-31T02:50:10;10.47;;;8.40;;
9809;SDS011;4944;52.514;13.192;2022-10-31T02:52:40;12.13;;;8.80;;
9809;SDS011;4944;52.514;13.192;2022-10-31T02:55:10;10.07;;;8.57;;
9809;SDS011;4944;52.514;13.192;2022-10-31T02:57:39;15.50;;;9.07;;
9809;SDS011;4944;52.514;13.192;2022-10-31T03:00:08;11.80;;;9.07;;
9809;SDS011;4944;52.514;13.192;2022-10-31T03:02:53;10.53;;;8.63;;
9809;SDS011;4944;52.514;13.192;2022-10-31T03:05:32;13.77;;;9.00;;
9809;SDS011;4944;52.514;13.192;2022-10-31T03:08:20;13.17;;;8.87;;
9809;SDS011;4944;52.514;13.192;2022-10-31T03:10:52;9.83;;;8.70;;
9809;SDS011;4944;52.514;13.192;2022-10-31T03:13:24;13.17;;;8.93;;
9809;SDS011;4944;52.514;13.192;2022-10-31T03:16:01;13.47;;;8.77;;
9809;SDS011;4944;52.514;13.192;2022-10-31T03:18:37;13.47;;;8.67;;
9809;SDS011;4944;52.514;13.192;2022-10-31T03:21:06;14.07;;;8.90;;
9809;SDS011;4944;52.514;13.192;2022-10-31T03:23:36;14.80;;;9.30;;
9809;SDS011;4944;52.514;13.192;2022-10-31T03:26:05;16.93;;;9.40;;
9809;SDS011;4944;52.514;13.192;2022-10-31T03:28:36;10.53;;;8.37;;
9809;SDS011;4944;52.514;13.192;2022-10-31T03:31:10;11.53;;;8.87;;
9809;SDS011;4944;52.514;13.192;2022-10-31T03:33:44;12.30;;;8.97;;
9809;SDS011;4944;52.514;13.192;2022-10-31T03:36:14;12.87;;;8.10;;
9809;SDS011;4944;52.514;13.192;2022-10-31T03:38:42;11.30;;;9.17;;
9809;SDS011;4944;52.514;13.192;2022-10-31T03:41:13;14.03;;;8.63;;
9809;SDS011;4944;52.514;13.192;2022-10-31T03:43:42;12.07;;;9.13;;
9809;SDS011;4944;52.514;13.192;2022-10-31T03:46:16;14.53;;;9.10;;
9809;SDS011;4944;52.514;13.192;2022-10-31T03:48:45;16.97;;;8.27;;
9809;SDS011;4944;52.514;13.192;2022-10-31T03:51:13;9.90;;;8.13;;
9809;SDS011;4944;52.514;13.192;2022-10-31T03:53:45;15.93;;;8.40;;
9809;SDS011;4944;52.514;13.192;2022-10-31T03:56:17;14.60;;;8.73;;
9809;SDS011;4944;52.514;13.192;2022-10-31T03:58:48;11.67;;;8.80;;
9809;SDS011;4944;52.514;13.192;2022-10-31T04:01:24;13.67;;;9.00;;
9809;SDS011;4944;52.514;13.192;2022-10-31T04:03:54;11.20;;;8.23;;
9809;SDS011;4944;52.514;13.192;2022-10-31T04:06:22;10.67;;;8.57;;
9809;SDS011;4944;52.514;13.192;2022-10-31T04:08:53;13.70;;;8.67;;
9809;SDS011;4944;52.514;13.192;2022-10-31T04:11:24;11.93;;;8.67;;
9809;SDS011;4944;52.514;13.192;2022-10-31T04:13:56;16.80;;;9.10;;
9809;SDS011;4944;52.514;13.192;2022-10-31T04:16:24;11.80;;;8.77;;
9809;SDS011;4944;52.514;13.192;2022-10-31T04:18:52;10.80;;;8.10;;
9809;SDS011;4944;52.514;13.192;2022-10-31T04:21:25;12.97;;;8.50;;
9809;SDS011;4944;52.514;13.192;2022-10-31T04:23:53;9.83;;;8.00;;
9809;SDS011;4944;52.514;13.192;2022-10-31T04:26:20;13.47;;;8.40;;
9809;SDS011;4944;52.514;13.192;2022-10-31T04:28:47;11.03;;;8.50;;
9809;SDS011;4944;52.514;13.192;2022-10-31T04:31:13;9.67;;;8.40;;
9809;SDS011;4944;52.514;13.192;2022-10-31T04:33:40;15.67;;;8.10;;
9809;SDS011;4944;52.514;13.192;2022-10-31T04:36:07;11.03;;;7.73;;
9809;SDS011;4944;52.514;13.192;2022-10-31T04:38:35;12.17;;;7.90;;
9809;SDS011;4944;52.514;13.192;2022-10-31T04:41:02;13.03;;;8.57;;
9809;SDS011;4944;52.514;13.192;2022-10-31T04:43:29;9.87;;;7.90;;
9809;SDS011;4944;52.514;13.192;2022-10-31T04:45:56;13.33;;;8.03;;
9809;SDS011;4944;52.514;13.192;2022-10-31T04:48:22;13.47;;;8.03;;
9809;SDS011;4944;52.514;13.192;2022-10-31T04:50:49;13.60;;;8.70;;
9809;SDS011;4944;52.514;13.192;2022-10-31T04:53:16;9.93;;;8.13;;
9809;SDS011;4944;52.514;13.192;2022-10-31T04:55:44;16.63;;;8.70;;
9809;SDS011;4944;52.514;13.192;2022-10-31T04:58:11;10.13;;;8.27;;
9809;SDS011;4944;52.514;13.192;2022-10-31T05:00:37;10.20;;;8.50;;
9809;SDS011;4944;52.514;13.192;2022-10-31T05:03:04;13.10;;;8.57;;
9809;SDS011;4944;52.514;13.192;2022-10-31T05:05:31;10.97;;;8.93;;
9809;SDS011;4944;52.514;13.192;2022-10-31T05:07:58;13.23;;;8.47;;
9809;SDS011;4944;52.514;13.192;2022-10-31T05:10:25;14.13;;;9.30;;
9809;SDS011;4944;52.514;13.192;2022-10-31T05:12:55;13.87;;;8.07;;
9809;SDS011;4944;52.514;13.192;2022-10-31T05:15:23;15.57;;;8.57;;
9809;SDS011;4944;52.514;13.192;2022-10-31T05:17:50;11.87;;;7.90;;
9809;SDS011;4944;52.514;13.192;2022-10-31T05:20:18;13.60;;;8.70;;
9809;SDS011;4944;52.514;13.192;2022-10-31T05:22:48;10.53;;;8.20;;
9809;SDS011;4944;52.514;13.192;2022-10-31T05:25:16;12.33;;;8.60;;
9809;SDS011;4944;52.514;13.192;2022-10-31T05:27:44;13.10;;;8.97;;
9809;SDS011;4944;52.514;13.192;2022-10-31T05:30:15;8.50;;;7.50;;
9809;SDS011;4944;52.514;13.192;2022-10-31T05:32:44;12.47;;;7.83;;
9809;SDS011;4944;52.514;13.192;2022-10-31T05:35:13;11.63;;;8.57;;
9809;SDS011;4944;52.514;13.192;2022-10-31T05:37:41;10.43;;;8.10;;
9809;SDS011;4944;52.514;13.192;2022-10-31T05:40:08;10.30;;;7.83;;
9809;SDS011;4944;52.514;13.192;2022-10-31T05:42:37;14.07;;;8.30;;
9809;SDS011;4944;52.514;13.192;2022-10-31T05:45:05;12.37;;;8.23;;
9809;SDS011;4944;52.514;13.192;2022-10-31T05:47:34;11.13;;;8.23;;
9809;SDS011;4944;52.514;13.192;2022-10-31T05:50:01;13.93;;;8.63;;
9809;SDS011;4944;52.514;13.192;2022-10-31T05:52:28;12.10;;;8.13;;
9809;SDS011;4944;52.514;13.192;2022-10-31T05:54:55;13.57;;;8.57;;
9809;SDS011;4944;52.514;13.192;2022-10-31T05:57:22;10.93;;;8.80;;
9809;SDS011;4944;52.514;13.192;2022-10-31T05:59:48;12.20;;;8.20;;
9809;SDS011;4944;52.514;13.192;2022-10-31T06:02:17;12.00;;;8.47;;
9809;SDS011;4944;52.514;13.192;2022-10-31T06:04:45;12.07;;;8.57;;
9809;SDS011;4944;52.514;13.192;2022-10-31T06:07:12;11.30;;;8.50;;
9809;SDS011;4944;52.514;13.192;2022-10-31T06:09:39;12.40;;;8.40;;
9809;SDS011;4944;52.514;13.192;2022-10-31T06:12:06;14.10;;;7.90;;
9809;SDS011;4944;52.514;13.192;2022-10-31T06:14:32;14.10;;;8.43;;
9809;SDS011;4944;52.514;13.192;2022-10-31T06:16:59;9.60;;;8.00;;
9809;SDS011;4944;52.514;13.192;2022-10-31T06:19:26;11.70;;;8.27;;
9809;SDS011;4944;52.514;13.192;2022-10-31T06:21:54;12.77;;;7.50;;
9809;SDS011;4944;52.514;13.192;2022-10-31T06:24:20;10.77;;;9.20;;
9809;SDS011;4944;52.514;13.192;2022-10-31T06:26:47;12.37;;;7.60;;
9809;SDS011;4944;52.514;13.192;2022-10-31T06:29:14;13.50;;;8.57;;
9809;SDS011;4944;52.514;13.192;2022-10-31T06:31:41;10.87;;;8.57;;
9809;SDS011;4944;52.514;13.192;2022-10-31T06:34:07;10.40;;;8.33;;
9809;SDS011;4944;52.514;13.192;2022-10-31T06:36:34;12.93;;;8.60;;
9809;SDS011;4944;52.514;13.192;2022-10-31T06:39:02;10.93;;;8.33;;
9809;SDS011;4944;52.514;13.192;2022-10-31T06:41:29;10.83;;;8.77;;
9809;SDS011;4944;52.514;13.192;2022-10-31T06:43:56;9.87;;;7.90;;
9809;SDS011;4944;52.514;13.192;2022-10-31T06:46:23;13.00;;;8.37;;
9809;SDS011;4944;52.514;13.192;2022-10-31T06:48:49;16.27;;;9.43;;
9809;SDS011;4944;52.514;13.192;2022-10-31T06:51:16;16.20;;;8.77;;
9809;SDS011;4944;52.514;13.192;2022-10-31T06:53:43;12.77;;;8.03;;
9809;SDS011;4944;52.514;13.192;2022-10-31T06:56:11;14.30;;;9.33;;
9809;SDS011;4944;52.514;13.192;2022-10-31T06:58:38;12.03;;;8.43;;
9809;SDS011;4944;52.514;13.192;2022-10-31T07:01:04;11.33;;;8.10;;
9809;SDS011;4944;52.514;13.192;2022-10-31T07:03:31;11.40;;;8.20;;
9809;SDS011;4944;52.514;13.192;2022-10-31T07:05:58;13.53;;;8.67;;
9809;SDS011;4944;52.514;13.192;2022-10-31T07:08:25;9.97;;;8.70;;
9809;SDS011;4944;52.514;13.192;2022-10-31T07:10:52;14.77;;;8.63;;
9809;SDS011;4944;52.514;13.192;2022-10-31T07:13:22;14.30;;;7.87;;
9809;SDS011;4944;52.514;13.192;2022-10-31T07:15:51;12.77;;;8.93;;
9809;SDS011;4944;52.514;13.192;2022-10-31T07:18:18;11.00;;;8.47;;
9809;SDS011;4944;52.514;13.192;2022-10-31T07:20:45;11.70;;;8.83;;
9809;SDS011;4944;52.514;13.192;2022-10-31T07:23:12;9.97;;;8.50;;
9809;SDS011;4944;52.514;13.192;2022-10-31T07:25:40;17.27;;;8.77;;
9809;SDS011;4944;52.514;13.192;2022-10-31T07:28:07;13.20;;;8.60;;
9809;SDS011;4944;52.514;13.192;2022-10-31T07:30:35;10.13;;;9.10;;
9809;SDS011;4944;52.514;13.192;2022-10-31T07:33:02;13.87;;;9.17;;
9809;SDS011;4944;52.514;13.192;2022-10-31T07:35:30;17.30;;;9.30;;
9809;SDS011;4944;52.514;13.192;2022-10-31T07:37:57;13.27;;;9.10;;
9809;SDS011;4944;52.514;13.192;2022-10-31T07:40:32;14.43;;;9.73;;
9809;SDS011;4944;52.514;13.192;2022-10-31T07:42:58;11.03;;;9.83;;
9809;SDS011;4944;52.514;13.192;2022-10-31T07:45:25;12.50;;;9.63;;
9809;SDS011;4944;52.514;13.192;2022-10-31T07:47:53;14.77;;;9.93;;
9809;SDS011;4944;52.514;13.192;2022-10-31T07:50:21;15.40;;;9.87;;
9809;SDS011;4944;52.514;13.192;2022-10-31T07:52:57;15.00;;;10.53;;
9809;SDS011;4944;52.514;13.192;2022-10-31T07:55:24;13.03;;;9.50;;
9809;SDS011;4944;52.514;13.192;2022-10-31T07:57:55;15.67;;;10.27;;
9809;SDS011;4944;52.514;13.192;2022-10-31T08:00:22;11.83;;;10.23;;
9809;SDS011;4944;52.514;13.192;2022-10-31T08:02:57;15.47;;;9.97;;
9809;SDS011;4944;52.514;13.192;2022-10-31T08:05:24;18.43;;;10.40;;
9809;SDS011;4944;52.514;13.192;2022-10-31T08:07:51;19.53;;;10.93;;
9809;SDS011;4944;52.514;13.192;2022-10-31T08:10:18;16.63;;;10.27;;
9809;SDS011;4944;52.514;13.192;2022-10-31T08:12:45;18.33;;;10.80;;
9809;SDS011;4944;52.514;13.192;2022-10-31T08:15:12;16.13;;;11.03;;
9809;SDS011;4944;52.514;13.192;2022-10-31T08:17:39;15.70;;;11.07;;
9809;SDS011;4944;52.514;13.192;2022-10-31T08:20:07;15.77;;;10.57;;
9809;SDS011;4944;52.514;13.192;2022-10-31T08:22:35;17.07;;;11.07;;
9809;SDS011;4944;52.514;13.192;2022-10-31T08:25:01;19.03;;;10.83;;
9809;SDS011;4944;52.514;13.192;2022-10-31T08:27:28;18.93;;;10.17;;
9809;SDS011;4944;52.514;13.192;2022-10-31T08:29:55;17.37;;;10.70;;
9809;SDS011;4944;52.514;13.192;2022-10-31T08:32:22;16.60;;;11.57;;
9809;SDS011;4944;52.514;13.192;2022-10-31T08:34:49;18.67;;;11.30;;
9809;SDS011;4944;52.514;13.192;2022-10-31T08:37:17;17.73;;;11.50;;
9809;SDS011;4944;52.514;13.192;2022-10-31T08:39:45;19.87;;;11.40;;
9809;SDS011;4944;52.514;13.192;2022-10-31T08:42:12;16.40;;;11.13;;
9809;SDS011;4944;52.514;13.192;2022-10-31T08:44:38;19.60;;;12.43;;
9809;SDS011;4944;52.514;13.192;2022-10-31T08:47:05;18.20;;;12.23;;
9809;SDS011;4944;52.514;13.192;2022-10-31T08:49:32;19.10;;;11.57;;
9809;SDS011;4944;52.514;13.192;2022-10-31T08:51:58;18.57;;;12.53;;
9809;SDS011;4944;52.514;13.192;2022-10-31T08:54:27;18.47;;;12.23;;
9809;SDS011;4944;52.514;13.192;2022-10-31T08:56:54;19.77;;;12.77;;
9809;SDS011;4944;52.514;13.192;2022-10-31T08:59:21;22.47;;;14.30;;
9809;SDS011;4944;52.514;13.192;2022-10-31T09:01:48;16.67;;;13.57;;
9809;SDS011;4944;52.514;13.192;2022-10-31T09:04:15;20.07;;;12.47;;
9809;SDS011;4944;52.514;13.192;2022-10-31T09:06:41;19.37;;;13.97;;
9809;SDS011;4944;52.514;13.192;2022-10-31T09:09:08;16.70;;;13.37;;
9809;SDS011;4944;52.514;13.192;2022-10-31T09:11:36;20.90;;;13.43;;
9809;SDS011;4944;52.514;13.192;2022-10-31T09:14:03;24.37;;;14.20;;
9809;SDS011;4944;52.514;13.192;2022-10-31T09:16:30;17.50;;;13.83;;
9809;SDS011;4944;52.514;13.192;2022-10-31T09:18:56;18.03;;;14.37;;
9809;SDS011;4944;52.514;13.192;2022-10-31T09:21:23;18.97;;;13.97;;
9809;SDS011;4944;52.514;13.192;2022-10-31T09:23:50;16.37;;;14.60;;
9809;SDS011;4944;52.514;13.192;2022-10-31T09:26:18;21.47;;;14.57;;
9809;SDS011;4944;52.514;13.192;2022-10-31T09:28:47;18.53;;;13.73;;
9809;SDS011;4944;52.514;13.192;2022-10-31T09:31:14;21.63;;;14.97;;
9809;SDS011;4944;52.514;13.192;2022-10-31T09:33:41;22.70;;;14.83;;
9809;SDS011;4944;52.514;13.192;2022-10-31T09:36:08;20.97;;;15.03;;
9809;SDS011;4944;52.514;13.192;2022-10-31T09:38:34;17.73;;;14.20;;
9809;SDS011;4944;52.514;13.192;2022-10-31T09:41:04;20.57;;;15.03;;
9809;SDS011;4944;52.514;13.192;2022-10-31T09:43:40;16.90;;;14.67;;
9809;SDS011;4944;52.514;13.192;2022-10-31T09:46:17;20.80;;;14.17;;
9809;SDS011;4944;52.514;13.192;2022-10-31T09:48:53;19.87;;;15.53;;
9809;SDS011;4944;52.514;13.192;2022-10-31T09:51:30;21.53;;;15.90;;
9809;SDS011;4944;52.514;13.192;2022-10-31T09:54:00;30.17;;;15.50;;
9809;SDS011;4944;52.514;13.192;2022-10-31T09:56:31;20.07;;;15.13;;
9809;SDS011;4944;52.514;13.192;2022-10-31T09:59:00;19.60;;;15.93;;
9809;SDS011;4944;52.514;13.192;2022-10-31T10:01:32;20.90;;;16.00;;
9809;SDS011;4944;52.514;13.192;2022-10-31T10:04:05;23.97;;;17.20;;
9809;SDS011;4944;52.514;13.192;2022-10-31T10:06:44;24.00;;;14.47;;
9809;SDS011;4944;52.514;13.192;2022-10-31T10:09:14;19.47;;;14.00;;
9809;SDS011;4944;52.514;13.192;2022-10-31T10:11:45;26.43;;;13.90;;
9809;SDS011;4944;52.514;13.192;2022-10-31T10:14:23;21.67;;;15.63;;
9809;SDS011;4944;52.514;13.192;2022-10-31T10:17:04;24.70;;;16.47;;
9809;SDS011;4944;52.514;13.192;2022-10-31T10:19:56;24.50;;;16.00;;
9809;SDS011;4944;52.514;13.192;2022-10-31T10:22:38;24.50;;;17.23;;
9809;SDS011;4944;52.514;13.192;2022-10-31T10:25:14;28.50;;;15.93;;
9809;SDS011;4944;52.514;13.192;2022-10-31T10:27:47;22.50;;;16.47;;
9809;SDS011;4944;52.514;13.192;2022-10-31T10:30:17;28.50;;;17.77;;
9809;SDS011;4944;52.514;13.192;2022-10-31T10:32:47;25.63;;;17.23;;
9809;SDS011;4944;52.514;13.192;2022-10-31T10:35:19;29.00;;;17.97;;
9809;SDS011;4944;52.514;13.192;2022-10-31T10:37:49;21.17;;;17.23;;
9809;SDS011;4944;52.514;13.192;2022-10-31T10:40:22;26.53;;;17.00;;
9809;SDS011;4944;52.514;13.192;2022-10-31T10:42:53;23.67;;;15.17;;
9809;SDS011;4944;52.514;13.192;2022-10-31T10:45:44;21.70;;;16.30;;
9809;SDS011;4944;52.514;13.192;2022-10-31T10:48:37;23.17;;;14.70;;
9809;SDS011;4944;52.514;13.192;2022-10-31T10:51:10;24.37;;;16.33;;
9809;SDS011;4944;52.514;13.192;2022-10-31T10:53:49;24.23;;;15.70;;
9809;SDS011;4944;52.514;13.192;2022-10-31T10:56:35;20.93;;;14.60;;
9809;SDS011;4944;52.514;13.192;2022-10-31T10:59:07;20.23;;;13.70;;
9809;SDS011;4944;52.514;13.192;2022-10-31T11:01:37;20.37;;;13.80;;
9809;SDS011;4944;52.514;13.192;2022-10-31T11:04:09;21.53;;;16.40;;
9809;SDS011;4944;52.514;13.192;2022-10-31T11:06:56;21.77;;;15.57;;
9809;SDS011;4944;52.514;13.192;2022-10-31T11:09:23;28.20;;;17.63;;
9809;SDS011;4944;52.514;13.192;2022-10-31T11:11:50;19.27;;;15.03;;
9809;SDS011;4944;52.514;13.192;2022-10-31T11:14:18;21.93;;;14.67;;
9809;SDS011;4944;52.514;13.192;2022-10-31T11:16:47;20.43;;;13.83;;
9809;SDS011;4944;52.514;13.192;2022-10-31T11:19:17;24.23;;;15.07;;
9809;SDS011;4944;52.514;13.192;2022-10-31T11:21:46;23.90;;;15.93;;
9809;SDS011;4944;52.514;13.192;2022-10-31T11:24:14;22.50;;;16.40;;
9809;SDS011;4944;52.514;13.192;2022-10-31T11:26:43;20.40;;;16.03;;
9809;SDS011;4944;52.514;13.192;2022-10-31T11:29:13;22.33;;;16.03;;
9809;SDS011;4944;52.514;13.192;2022-10-31T11:31:43;23.13;;;15.53;;
9809;SDS011;4944;52.514;13.192;2022-10-31T11:34:13;20.38;;;14.52;;
9809;SDS011;4944;52.514;13.192;2022-10-31T11:36:46;21.17;;;15.57;;
9809;SDS011;4944;52.514;13.192;2022-10-31T11:39:15;26.53;;;16.43;;
9809;SDS011;4944;52.514;13.192;2022-10-31T11:41:44;22.63;;;16.93;;
9809;SDS011;4944;52.514;13.192;2022-10-31T11:44:13;22.30;;;17.07;;
9809;SDS011;4944;52.514;13.192;2022-10-31T11:46:42;24.00;;;15.67;;
9809;SDS011;4944;52.514;13.192;2022-10-31T11:49:13;22.50;;;17.50;;
9809;SDS011;4944;52.514;13.192;2022-10-31T11:51:47;28.40;;;20.00;;
9809;SDS011;4944;52.514;13.192;2022-10-31T11:54:21;26.97;;;20.47;;
9809;SDS011;4944;52.514;13.192;2022-10-31T11:56:50;29.97;;;22.63;;
9809;SDS011;4944;52.514;13.192;2022-10-31T11:59:18;34.07;;;22.97;;
9809;SDS011;4944;52.514;13.192;2022-10-31T12:01:49;29.17;;;21.40;;
9809;SDS011;4944;52.514;13.192;2022-10-31T12:04:18;30.57;;;22.10;;
9809;SDS011;4944;52.514;13.192;2022-10-31T12:06:54;34.87;;;23.67;;
9809;SDS011;4944;52.514;13.192;2022-10-31T12:09:21;32.57;;;23.13;;
9809;SDS011;4944;52.514;13.192;2022-10-31T12:14:48;38.07;;;25.70;;
9809;SDS011;4944;52.514;13.192;2022-10-31T12:17:21;37.10;;;25.10;;
9809;SDS011;4944;52.514;13.192;2022-10-31T12:19:58;32.17;;;24.20;;
9809;SDS011;4944;52.514;13.192;2022-10-31T12:22:32;34.83;;;25.70;;
9809;SDS011;4944;52.514;13.192;2022-10-31T12:25:13;41.35;;;25.60;;
9809;SDS011;4944;52.514;13.192;2022-10-31T12:27:53;36.50;;;25.87;;
9809;SDS011;4944;52.514;13.192;2022-10-31T12:30:31;35.80;;;25.30;;
9809;SDS011;4944;52.514;13.192;2022-10-31T12:33:16;37.70;;;26.37;;
9809;SDS011;4944;52.514;13.192;2022-10-31T12:35:59;37.40;;;26.43;;
9809;SDS011;4944;52.514;13.192;2022-10-31T12:38:58;44.23;;;26.80;;
9809;SDS011;4944;52.514;13.192;2022-10-31T12:41:44;33.67;;;25.70;;
9809;SDS011;4944;52.514;13.192;2022-10-31T12:44:25;35.83;;;26.60;;
9809;SDS011;4944;52.514;13.192;2022-10-31T12:47:23;35.67;;;27.33;;
9809;SDS011;4944;52.514;13.192;2022-10-31T12:50:00;33.63;;;27.10;;
9809;SDS011;4944;52.514;13.192;2022-10-31T12:52:51;35.63;;;27.20;;
9809;SDS011;4944;52.514;13.192;2022-10-31T12:55:34;39.47;;;26.17;;
9809;SDS011;4944;52.514;13.192;2022-10-31T12:58:07;36.00;;;27.90;;
9809;SDS011;4944;52.514;13.192;2022-10-31T13:00:41;39.77;;;28.23;;
9809;SDS011;4944;52.514;13.192;2022-10-31T13:03:17;35.73;;;25.57;;
9809;SDS011;4944;52.514;13.192;2022-10-31T13:05:51;36.80;;;28.13;;
9809;SDS011;4944;52.514;13.192;2022-10-31T13:08:24;37.30;;;26.57;;
9809;SDS011;4944;52.514;13.192;2022-10-31T13:10:59;35.67;;;25.80;;
9809;SDS011;4944;52.514;13.192;2022-10-31T13:13:33;36.03;;;27.20;;
9809;SDS011;4944;52.514;13.192;2022-10-31T13:16:04;34.67;;;26.43;;
9809;SDS011;4944;52.514;13.192;2022-10-31T13:18:38;37.27;;;26.93;;
9809;SDS011;4944;52.514;13.192;2022-10-31T13:21:11;36.57;;;25.93;;
9809;SDS011;4944;52.514;13.192;2022-10-31T13:23:44;35.17;;;25.50;;
9809;SDS011;4944;52.514;13.192;2022-10-31T13:26:15;41.17;;;26.93;;
9809;SDS011;4944;52.514;13.192;2022-10-31T13:28:48;32.60;;;26.23;;
9809;SDS011;4944;52.514;13.192;2022-10-31T13:31:22;32.60;;;25.90;;
9809;SDS011;4944;52.514;13.192;2022-10-31T13:33:49;36.83;;;26.37;;
9809;SDS011;4944;52.514;13.192;2022-10-31T13:36:21;35.83;;;27.23;;
9809;SDS011;4944;52.514;13.192;2022-10-31T13:38:57;37.10;;;26.67;;
9809;SDS011;4944;52.514;13.192;2022-10-31T13:41:35;32.33;;;27.13;;
9809;SDS011;4944;52.514;13.192;2022-10-31T13:44:11;35.83;;;27.80;;
9809;SDS011;4944;52.514;13.192;2022-10-31T13:46:40;33.93;;;27.90;;
9809;SDS011;4944;52.514;13.192;2022-10-31T13:49:25;35.80;;;27.33;;
9809;SDS011;4944;52.514;13.192;2022-10-31T13:54:57;37.23;;;29.00;;
9809;SDS011;4944;52.514;13.192;2022-10-31T13:57:27;39.20;;;28.47;;
9809;SDS011;4944;52.514;13.192;2022-10-31T13:59:58;37.93;;;29.50;;
9809;SDS011;4944;52.514;13.192;2022-10-31T14:02:27;36.50;;;26.80;;
9809;SDS011;4944;52.514;13.192;2022-10-31T14:04:56;35.10;;;26.73;;
9809;SDS011;4944;52.514;13.192;2022-10-31T14:07:25;36.47;;;28.27;;
9809;SDS011;4944;52.514;13.192;2022-10-31T14:09:54;33.47;;;27.87;;
9809;SDS011;4944;52.514;13.192;2022-10-31T14:12:27;37.57;;;27.87;;
9809;SDS011;4944;52.514;13.192;2022-10-31T14:14:57;40.97;;;30.37;;
9809;SDS011;4944;52.514;13.192;2022-10-31T14:17:29;43.47;;;29.03;;
9809;SDS011;4944;52.514;13.192;2022-10-31T14:20:24;44.43;;;30.80;;
9809;SDS011;4944;52.514;13.192;2022-10-31T14:22:57;41.33;;;30.50;;
9809;SDS011;4944;52.514;13.192;2022-10-31T14:25:29;44.43;;;32.13;;
9809;SDS011;4944;52.514;13.192;2022-10-31T14:27:58;45.03;;;29.80;;
9809;SDS011;4944;52.514;13.192;2022-10-31T14:30:27;43.17;;;29.50;;
9809;SDS011;4944;52.514;13.192;2022-10-31T14:32:56;38.67;;;29.33;;
9809;SDS011;4944;52.514;13.192;2022-10-31T14:35:27;42.90;;;31.27;;
9809;SDS011;4944;52.514;13.192;2022-10-31T14:38:15;40.27;;;30.70;;
9809;SDS011;4944;52.514;13.192;2022-10-31T14:43:58;43.93;;;30.80;;
9809;SDS011;4944;52.514;13.192;2022-10-31T14:47:05;43.00;;;31.00;;
9809;SDS011;4944;52.514;13.192;2022-10-31T14:49:53;41.13;;;29.77;;
9809;SDS011;4944;52.514;13.192;2022-10-31T14:52:37;37.77;;;28.67;;
9809;SDS011;4944;52.514;13.192;2022-10-31T14:55:06;40.20;;;31.10;;
9809;SDS011;4944;52.514;13.192;2022-10-31T14:57:42;43.43;;;30.60;;
9809;SDS011;4944;52.514;13.192;2022-10-31T15:00:15;43.90;;;31.77;;
9809;SDS011;4944;52.514;13.192;2022-10-31T15:02:46;52.47;;;32.67;;
9809;SDS011;4944;52.514;13.192;2022-10-31T15:05:22;43.20;;;31.70;;
9809;SDS011;4944;52.514;13.192;2022-10-31T15:07:51;51.10;;;34.33;;
9809;SDS011;4944;52.514;13.192;2022-10-31T15:10:19;46.63;;;32.90;;
9809;SDS011;4944;52.514;13.192;2022-10-31T15:12:49;44.30;;;32.70;;
9809;SDS011;4944;52.514;13.192;2022-10-31T15:15:17;48.43;;;33.80;;
9809;SDS011;4944;52.514;13.192;2022-10-31T15:17:47;45.70;;;31.97;;